sensor_id;sensor_type;location;lat;lon;timestamp;pressure;altitude;pressure_sealevel;temperature;humidity
59859;BME280;45734;53.648;9.566;2024-03-25T00:00:54;53203.91;;;-145.06;100.00
59859;BME280;45734;53.648;9.566;2024-03-25T00:05:55;53203.91;;;-145.06;100.00
59859;BME280;45734;53.648;9.566;2024-03-25T00:10:55;53131.00;;;-145.06;100.00
59859;BME280;45734;53.648;9.566;2024-03-25T00:15:56;53126.94;;;-145.06;100.00
59859;BME280;45734;53.648;9.566;2024-03-25T00:20:56;53126.94;;;-145.06;100.00
59859;BME280;45734;53.648;9.566;2024-03-25T00:25:56;53126.94;;;-145.06;100.00
59859;BME280;45734;53.648;9.566;2024-03-25T00:30:57;53120.88;;;-145.06;100.00
59859;BME280;45734;53.648;9.566;2024-03-25T00:35:58;53080.38;;;-145.06;100.00
59859;BME280;45734;53.648;9.566;2024-03-25T00:40:59;53092.53;;;-145.06;100.00
59859;BME280;45734;53.648;9.566;2024-03-25T00:45:59;53064.19;;;-145.06;100.00
59859;BME280;45734;53.648;9.566;2024-03-25T00:50:59;53041.91;;;-145.06;100.00
59859;BME280;45734;53.648;9.566;2024-03-25T00:56:00;53064.19;;;-145.06;100.00
59859;BME280;45734;53.648;9.566;2024-03-25T01:01:01;53066.22;;;-145.06;100.00
59859;BME280;45734;53.648;9.566;2024-03-25T01:06:01;53058.09;;;-145.06;100.00
59859;BME280;45734;53.648;9.566;2024-03-25T01:11:02;53064.19;;;-145.06;100.00
59859;BME280;45734;53.648;9.566;2024-03-25T01:16:02;53027.75;;;-145.06;100.00
59859;BME280;45734;53.648;9.566;2024-03-25T01:21:03;53070.25;;;-145.06;100.00
59859;BME280;45734;53.648;9.566;2024-03-25T01:26:04;53041.91;;;-145.06;100.00
59859;BME280;45734;53.648;9.566;2024-03-25T01:31:04;53023.69;;;-145.06;100.00
59859;BME280;45734;53.648;9.566;2024-03-25T01:36:05;53064.19;;;-145.06;100.00
59859;BME280;45734;53.648;9.566;2024-03-25T01:41:09;53052.03;;;-145.06;100.00
59859;BME280;45734;53.648;9.566;2024-03-25T01:46:10;53013.56;;;-145.06;100.00
59859;BME280;45734;53.648;9.566;2024-03-25T01:51:13;53045.97;;;-145.06;100.00
59859;BME280;45734;53.648;9.566;2024-03-25T01:56:15;53054.06;;;-145.06;100.00
59859;BME280;45734;53.648;9.566;2024-03-25T02:01:17;53068.22;;;-145.06;100.00
59859;BME280;45734;53.648;9.566;2024-03-25T02:06:19;53058.09;;;-145.06;100.00
59859;BME280;45734;53.648;9.566;2024-03-25T02:11:20;53050.00;;;-145.06;100.00
59859;BME280;45734;53.648;9.566;2024-03-25T02:16:20;53060.13;;;-145.06;100.00
59859;BME280;45734;53.648;9.566;2024-03-25T02:21:21;53058.09;;;-145.06;100.00
59859;BME280;45734;53.648;9.566;2024-03-25T02:26:22;53062.16;;;-145.06;100.00
59859;BME280;45734;53.648;9.566;2024-03-25T02:31:23;53070.25;;;-145.06;100.00
59859;BME280;45734;53.648;9.566;2024-03-25T02:36:24;53094.56;;;-145.06;100.00
59859;BME280;45734;53.648;9.566;2024-03-25T02:41:24;53118.84;;;-145.06;100.00
59859;BME280;45734;53.648;9.566;2024-03-25T02:46:24;53165.41;;;-145.06;100.00
59859;BME280;45734;53.648;9.566;2024-03-25T02:51:25;53151.25;;;-145.06;100.00
59859;BME280;45734;53.648;9.566;2024-03-25T02:56:25;53197.81;;;-145.06;100.00
59859;BME280;45734;53.648;9.566;2024-03-25T03:01:26;53185.66;;;-145.06;100.00
59859;BME280;45734;53.648;9.566;2024-03-25T03:06:26;53193.78;;;-145.06;100.00
59859;BME280;45734;53.648;9.566;2024-03-25T03:11:26;53179.59;;;-145.06;100.00
59859;BME280;45734;53.648;9.566;2024-03-25T03:16:27;53177.56;;;-145.06;100.00
59859;BME280;45734;53.648;9.566;2024-03-25T03:21:27;53163.41;;;-145.06;100.00
59859;BME280;45734;53.648;9.566;2024-03-25T03:26:28;53131.00;;;-145.06;100.00
59859;BME280;45734;53.648;9.566;2024-03-25T03:31:28;53098.59;;;-145.06;100.00
59859;BME280;45734;53.648;9.566;2024-03-25T03:36:28;53131.00;;;-145.06;100.00
59859;BME280;45734;53.648;9.566;2024-03-25T03:41:29;53149.22;;;-145.06;100.00
59859;BME280;45734;53.648;9.566;2024-03-25T03:46:29;53173.53;;;-145.06;100.00
59859;BME280;45734;53.648;9.566;2024-03-25T03:51:29;53191.75;;;-145.06;100.00
59859;BME280;45734;53.648;9.566;2024-03-25T03:56:30;53207.94;;;-145.06;100.00
59859;BME280;45734;53.648;9.566;2024-03-25T04:01:30;53232.25;;;-145.06;100.00
59859;BME280;45734;53.648;9.566;2024-03-25T04:06:30;53197.81;;;-145.06;100.00
59859;BME280;45734;53.648;9.566;2024-03-25T04:11:31;53201.88;;;-145.06;100.00
59859;BME280;45734;53.648;9.566;2024-03-25T04:16:31;53218.06;;;-145.06;100.00
59859;BME280;45734;53.648;9.566;2024-03-25T04:21:31;53220.09;;;-145.06;100.00
59859;BME280;45734;53.648;9.566;2024-03-25T04:26:32;53165.41;;;-145.06;100.00
59859;BME280;45734;53.648;9.566;2024-03-25T04:31:32;53185.66;;;-145.06;100.00
59859;BME280;45734;53.648;9.566;2024-03-25T04:36:32;53193.78;;;-145.06;100.00
59859;BME280;45734;53.648;9.566;2024-03-25T04:41:32;53199.84;;;-145.06;100.00
59859;BME280;45734;53.648;9.566;2024-03-25T04:46:33;53236.28;;;-145.06;100.00
59859;BME280;45734;53.648;9.566;2024-03-25T04:51:34;53248.44;;;-145.06;100.00
59859;BME280;45734;53.648;9.566;2024-03-25T04:56:34;53250.47;;;-145.06;100.00
59859;BME280;45734;53.648;9.566;2024-03-25T05:01:35;53252.50;;;-145.06;100.00
59859;BME280;45734;53.648;9.566;2024-03-25T05:06:36;53256.53;;;-145.06;100.00
59859;BME280;45734;53.648;9.566;2024-03-25T05:11:37;53228.19;;;-145.06;100.00
59859;BME280;45734;53.648;9.566;2024-03-25T05:16:37;53135.06;;;-145.06;100.00
59859;BME280;45734;53.648;9.566;2024-03-25T05:21:37;53052.03;;;-145.06;100.00
59859;BME280;45734;53.648;9.566;2024-03-25T05:26:38;53070.25;;;-145.06;100.00
59859;BME280;45734;53.648;9.566;2024-03-25T05:31:39;53058.09;;;-145.06;100.00
59859;BME280;45734;53.648;9.566;2024-03-25T05:36:39;53060.13;;;-145.06;100.00
59859;BME280;45734;53.648;9.566;2024-03-25T05:41:39;53086.47;;;-145.06;100.00
59859;BME280;45734;53.648;9.566;2024-03-25T05:46:40;53054.06;;;-145.06;100.00
59859;BME280;45734;53.648;9.566;2024-03-25T05:51:40;53033.81;;;-145.06;100.00
59859;BME280;45734;53.648;9.566;2024-03-25T05:56:40;53045.97;;;-145.06;100.00
59859;BME280;45734;53.648;9.566;2024-03-25T06:01:41;53041.91;;;-145.06;100.00
59859;BME280;45734;53.648;9.566;2024-03-25T06:06:41;53047.97;;;-145.06;100.00
59859;BME280;45734;53.648;9.566;2024-03-25T06:11:41;53033.81;;;-145.06;100.00
59859;BME280;45734;53.648;9.566;2024-03-25T06:16:42;53021.66;;;-145.06;100.00
59859;BME280;45734;53.648;9.566;2024-03-25T06:21:43;53001.41;;;-145.06;100.00
59859;BME280;45734;53.648;9.566;2024-03-25T06:26:43;52962.94;;;-145.06;100.00
59859;BME280;45734;53.648;9.566;2024-03-25T06:31:43;52960.91;;;-145.06;100.00
59859;BME280;45734;53.648;9.566;2024-03-25T06:37:02;52979.16;;;-145.06;100.00
59859;BME280;45734;53.648;9.566;2024-03-25T06:42:04;52973.06;;;-145.06;100.00
59859;BME280;45734;53.648;9.566;2024-03-25T06:47:05;53023.69;;;-145.06;100.00
59859;BME280;45734;53.648;9.566;2024-03-25T06:52:05;52989.28;;;-145.06;100.00
59859;BME280;45734;53.648;9.566;2024-03-25T06:57:05;53001.41;;;-145.06;100.00
59859;BME280;45734;53.648;9.566;2024-03-25T07:02:06;53005.47;;;-145.06;100.00
59859;BME280;45734;53.648;9.566;2024-03-25T07:07:07;52981.16;;;-145.06;100.00
59859;BME280;45734;53.648;9.566;2024-03-25T07:12:08;52960.91;;;-145.06;100.00
59859;BME280;45734;53.648;9.566;2024-03-25T07:17:09;52989.28;;;-145.06;100.00
59859;BME280;45734;53.648;9.566;2024-03-25T07:22:09;52896.13;;;-145.06;100.00
59859;BME280;45734;53.648;9.566;2024-03-25T07:27:09;52884.00;;;-145.06;100.00
59859;BME280;45734;53.648;9.566;2024-03-25T07:32:09;52683.56;;;-145.06;100.00
59859;BME280;45734;53.648;9.566;2024-03-25T07:37:10;52558.03;;;-145.06;100.00
59859;BME280;45734;53.648;9.566;2024-03-25T07:42:10;52705.81;;;-145.06;96.97
59859;BME280;45734;53.648;9.566;2024-03-25T07:47:10;52778.72;;;-145.06;97.53
59859;BME280;45734;53.648;9.566;2024-03-25T07:52:11;52839.44;;;-145.06;98.11
59859;BME280;45734;53.648;9.566;2024-03-25T07:57:11;52920.44;;;-145.06;96.68
59859;BME280;45734;53.648;9.566;2024-03-25T08:02:11;52952.81;;;-145.06;96.93
59859;BME280;45734;53.648;9.566;2024-03-25T08:07:11;52964.97;;;-145.06;96.62
59859;BME280;45734;53.648;9.566;2024-03-25T08:12:12;52948.78;;;-145.06;99.45
59859;BME280;45734;53.648;9.566;2024-03-25T08:17:12;52975.09;;;-145.06;99.12
59859;BME280;45734;53.648;9.566;2024-03-25T08:22:13;52956.88;;;-145.06;97.90
59859;BME280;45734;53.648;9.566;2024-03-25T08:27:13;52892.09;;;-145.06;98.25
59859;BME280;45734;53.648;9.566;2024-03-25T08:32:13;52865.75;;;-145.06;98.87
59859;BME280;45734;53.648;9.566;2024-03-25T08:37:13;52908.28;;;-145.06;89.38
59859;BME280;45734;53.648;9.566;2024-03-25T08:42:14;52884.00;;;-145.06;89.80
59859;BME280;45734;53.648;9.566;2024-03-25T08:47:14;52932.56;;;-145.06;85.10
59859;BME280;45734;53.648;9.566;2024-03-25T08:52:14;52920.44;;;-145.06;86.31
59859;BME280;45734;53.648;9.566;2024-03-25T08:57:15;52932.56;;;-145.06;89.06
59859;BME280;45734;53.648;9.566;2024-03-25T09:02:15;52993.31;;;-145.06;89.66
59859;BME280;45734;53.648;9.566;2024-03-25T09:07:15;53056.09;;;-145.06;89.97
59859;BME280;45734;53.648;9.566;2024-03-25T09:12:15;53098.59;;;-145.06;85.78
59859;BME280;45734;53.648;9.566;2024-03-25T09:17:16;53066.22;;;-145.06;88.36
59859;BME280;45734;53.648;9.566;2024-03-25T09:22:17;53060.13;;;-145.06;88.20
59859;BME280;45734;53.648;9.566;2024-03-25T09:27:17;53035.84;;;-145.06;82.05
59859;BME280;45734;53.648;9.566;2024-03-25T09:32:18;53045.97;;;-145.06;76.76
59859;BME280;45734;53.648;9.566;2024-03-25T09:37:18;53104.69;;;-145.06;72.57
59859;BME280;45734;53.648;9.566;2024-03-25T09:42:26;53017.63;;;-145.06;70.53
59859;BME280;45734;53.648;9.566;2024-03-25T09:47:27;52964.97;;;-145.06;69.34
59859;BME280;45734;53.648;9.566;2024-03-25T09:52:27;52979.16;;;-145.06;70.12
59859;BME280;45734;53.648;9.566;2024-03-25T09:57:28;52946.75;;;-145.06;70.68
59859;BME280;45734;53.648;9.566;2024-03-25T10:02:29;52908.28;;;-145.06;68.62
59859;BME280;45734;53.648;9.566;2024-03-25T10:07:30;53064.19;;;-145.06;59.39
59859;BME280;45734;53.648;9.566;2024-03-25T10:12:31;52906.25;;;-145.06;64.60
59859;BME280;45734;53.648;9.566;2024-03-25T10:17:32;52914.34;;;-145.06;63.96
59859;BME280;45734;53.648;9.566;2024-03-25T10:22:41;53021.66;;;-145.06;64.29
59859;BME280;45734;53.648;9.566;2024-03-25T10:27:41;53122.91;;;-145.06;67.80
59859;BME280;45734;53.648;9.566;2024-03-25T10:32:41;53155.28;;;-145.06;71.60
59859;BME280;45734;53.648;9.566;2024-03-25T10:37:42;53165.41;;;-145.06;66.03
59859;BME280;45734;53.648;9.566;2024-03-25T10:42:43;53060.13;;;-145.06;68.71
59859;BME280;45734;53.648;9.566;2024-03-25T10:47:45;53139.09;;;-145.06;65.31
59859;BME280;45734;53.648;9.566;2024-03-25T10:52:47;53070.25;;;-145.06;65.45
59859;BME280;45734;53.648;9.566;2024-03-25T10:57:48;53163.41;;;-145.06;62.39
59859;BME280;45734;53.648;9.566;2024-03-25T11:02:48;53195.78;;;-145.06;60.24
59859;BME280;45734;53.648;9.566;2024-03-25T11:07:49;53268.69;;;-145.06;58.99
59859;BME280;45734;53.648;9.566;2024-03-25T11:12:50;53232.25;;;-145.06;61.01
59859;BME280;45734;53.648;9.566;2024-03-25T11:17:50;53220.09;;;-145.06;61.17
59859;BME280;45734;53.648;9.566;2024-03-25T11:22:52;53128.97;;;-145.06;62.04
59859;BME280;45734;53.648;9.566;2024-03-25T11:27:53;53009.50;;;-145.06;64.30
59859;BME280;45734;53.648;9.566;2024-03-25T11:32:54;52983.19;;;-145.06;57.64
59859;BME280;45734;53.648;9.566;2024-03-25T11:37:55;52997.38;;;-145.06;58.99
59859;BME280;45734;53.648;9.566;2024-03-25T11:42:55;52971.03;;;-145.06;57.46
59859;BME280;45734;53.648;9.566;2024-03-25T11:47:56;53165.41;;;-145.06;52.66
59859;BME280;45734;53.648;9.566;2024-03-25T11:52:56;53005.47;;;-145.06;58.10
59859;BME280;45734;53.648;9.566;2024-03-25T11:57:57;52944.72;;;-145.06;59.15
59859;BME280;45734;53.648;9.566;2024-03-25T12:02:57;53013.56;;;-145.06;54.43
59859;BME280;45734;53.648;9.566;2024-03-25T12:07:57;53100.63;;;-145.06;58.54
59859;BME280;45734;53.648;9.566;2024-03-25T12:12:58;53155.28;;;-145.06;66.67
59859;BME280;45734;53.648;9.566;2024-03-25T12:17:58;53195.78;;;-145.06;71.14
59859;BME280;45734;53.648;9.566;2024-03-25T12:23:01;53256.53;;;-145.06;69.30
59859;BME280;45734;53.648;9.566;2024-03-25T12:28:08;53228.19;;;-145.06;71.26
59859;BME280;45734;53.648;9.566;2024-03-25T12:33:09;53224.13;;;-145.06;71.64
59859;BME280;45734;53.648;9.566;2024-03-25T12:38:09;53220.09;;;-145.06;70.42
59859;BME280;45734;53.648;9.566;2024-03-25T12:43:14;53234.25;;;-145.06;67.06
59859;BME280;45734;53.648;9.566;2024-03-25T12:48:15;53244.38;;;-145.06;68.59
59859;BME280;45734;53.648;9.566;2024-03-25T12:53:18;53256.53;;;-145.06;69.49
59859;BME280;45734;53.648;9.566;2024-03-25T12:58:18;53226.16;;;-145.06;70.56
59859;BME280;45734;53.648;9.566;2024-03-25T13:03:18;53212.00;;;-145.06;67.47
59859;BME280;45734;53.648;9.566;2024-03-25T13:08:19;53205.91;;;-145.06;67.39
59859;BME280;45734;53.648;9.566;2024-03-25T13:13:19;53191.75;;;-145.06;66.65
59859;BME280;45734;53.648;9.566;2024-03-25T13:18:19;53234.25;;;-145.06;63.25
59859;BME280;45734;53.648;9.566;2024-03-25T13:23:19;53171.50;;;-145.06;63.23
59859;BME280;45734;53.648;9.566;2024-03-25T13:28:20;53183.66;;;-145.06;60.38
59859;BME280;45734;53.648;9.566;2024-03-25T13:33:21;53151.25;;;-145.06;58.79
59859;BME280;45734;53.648;9.566;2024-03-25T13:38:22;53224.13;;;-145.06;55.74
59859;BME280;45734;53.648;9.566;2024-03-25T13:43:22;53209.97;;;-145.06;56.71
59859;BME280;45734;53.648;9.566;2024-03-25T13:48:23;53220.09;;;-145.06;56.09
59859;BME280;45734;53.648;9.566;2024-03-25T13:53:23;53177.56;;;-145.06;58.46
59859;BME280;45734;53.648;9.566;2024-03-25T13:58:23;53203.91;;;-145.06;57.34
59859;BME280;45734;53.648;9.566;2024-03-25T14:03:23;53232.25;;;-145.06;57.19
59859;BME280;45734;53.648;9.566;2024-03-25T14:08:24;53290.97;;;-145.06;55.58
59859;BME280;45734;53.648;9.566;2024-03-25T14:13:25;53286.91;;;-145.06;55.70
59859;BME280;45734;53.648;9.566;2024-03-25T14:18:26;53361.81;;;-145.06;53.75
59859;BME280;45734;53.648;9.566;2024-03-25T14:23:26;53329.44;;;-145.06;55.42
59859;BME280;45734;53.648;9.566;2024-03-25T14:28:27;53337.53;;;-145.06;56.28
59859;BME280;45734;53.648;9.566;2024-03-25T14:33:27;53333.47;;;-145.06;60.52
59859;BME280;45734;53.648;9.566;2024-03-25T14:38:27;53380.06;;;-145.06;63.58
59859;BME280;45734;53.648;9.566;2024-03-25T14:43:28;53367.91;;;-145.06;62.62
59859;BME280;45734;53.648;9.566;2024-03-25T14:48:28;53357.78;;;-145.06;63.35
59859;BME280;45734;53.648;9.566;2024-03-25T14:53:28;53402.31;;;-145.06;62.94
59859;BME280;45734;53.648;9.566;2024-03-25T14:58:28;53367.91;;;-145.06;63.71
59859;BME280;45734;53.648;9.566;2024-03-25T15:03:30;53369.94;;;-145.06;66.14
59859;BME280;45734;53.648;9.566;2024-03-25T15:08:34;53355.75;;;-145.06;68.04
59859;BME280;45734;53.648;9.566;2024-03-25T15:13:34;53367.91;;;-145.06;67.67
59859;BME280;45734;53.648;9.566;2024-03-25T15:18:34;53402.31;;;-145.06;68.97
59859;BME280;45734;53.648;9.566;2024-03-25T15:23:35;53454.97;;;-145.06;69.46
59859;BME280;45734;53.648;9.566;2024-03-25T15:28:35;53388.16;;;-145.06;72.18
59859;BME280;45734;53.648;9.566;2024-03-25T15:33:35;53418.53;;;-145.06;72.94
59859;BME280;45734;53.648;9.566;2024-03-25T15:38:36;53394.22;;;-145.06;72.84
59859;BME280;45734;53.648;9.566;2024-03-25T15:43:36;53420.56;;;-145.06;74.28
59859;BME280;45734;53.648;9.566;2024-03-25T15:48:36;53398.28;;;-145.06;74.46
59859;BME280;45734;53.648;9.566;2024-03-25T15:53:36;53428.66;;;-145.06;75.45
59859;BME280;45734;53.648;9.566;2024-03-25T15:58:37;53434.72;;;-145.06;75.78
59859;BME280;45734;53.648;9.566;2024-03-25T16:03:37;53426.63;;;-145.06;76.75
59859;BME280;45734;53.648;9.566;2024-03-25T16:08:37;53430.69;;;-145.06;77.35
59859;BME280;45734;53.648;9.566;2024-03-25T16:13:38;53418.53;;;-145.06;78.96
59859;BME280;45734;53.648;9.566;2024-03-25T16:18:38;53420.56;;;-145.06;77.81
59859;BME280;45734;53.648;9.566;2024-03-25T16:23:38;53398.28;;;-145.06;78.01
59859;BME280;45734;53.648;9.566;2024-03-25T16:28:39;53402.31;;;-145.06;76.17
59859;BME280;45734;53.648;9.566;2024-03-25T16:33:39;53450.94;;;-145.06;77.21
59859;BME280;45734;53.648;9.566;2024-03-25T16:38:41;53434.72;;;-145.06;80.50
59859;BME280;45734;53.648;9.566;2024-03-25T16:43:42;53442.81;;;-145.06;82.14
59859;BME280;45734;53.648;9.566;2024-03-25T16:48:42;53428.66;;;-145.06;81.67
59859;BME280;45734;53.648;9.566;2024-03-25T16:53:43;53459.03;;;-145.06;83.00
59859;BME280;45734;53.648;9.566;2024-03-25T16:58:43;53481.31;;;-145.06;84.23
59859;BME280;45734;53.648;9.566;2024-03-25T17:03:43;53489.41;;;-145.06;85.84
59859;BME280;45734;53.648;9.566;2024-03-25T17:08:43;53507.63;;;-145.06;86.29
59859;BME280;45734;53.648;9.566;2024-03-25T17:13:44;53505.59;;;-145.06;87.45
59859;BME280;45734;53.648;9.566;2024-03-25T17:18:44;53507.63;;;-145.06;88.46
59859;BME280;45734;53.648;9.566;2024-03-25T17:23:46;53499.53;;;-145.06;90.40
59859;BME280;45734;53.648;9.566;2024-03-25T17:28:46;53501.56;;;-145.06;92.92
59859;BME280;45734;53.648;9.566;2024-03-25T17:33:47;53531.94;;;-145.06;93.60
59859;BME280;45734;53.648;9.566;2024-03-25T17:38:48;53509.66;;;-145.06;94.16
59859;BME280;45734;53.648;9.566;2024-03-25T17:43:48;53501.56;;;-145.06;95.71
59859;BME280;45734;53.648;9.566;2024-03-25T17:48:49;53521.81;;;-145.06;98.10
59859;BME280;45734;53.648;9.566;2024-03-25T17:53:51;53519.78;;;-145.06;100.00
59859;BME280;45734;53.648;9.566;2024-03-25T17:58:51;53521.81;;;-145.06;100.00
59859;BME280;45734;53.648;9.566;2024-03-25T18:03:52;53535.97;;;-145.06;100.00
59859;BME280;45734;53.648;9.566;2024-03-25T18:08:52;53527.88;;;-145.06;100.00
59859;BME280;45734;53.648;9.566;2024-03-25T18:13:52;53523.81;;;-145.06;100.00
59859;BME280;45734;53.648;9.566;2024-03-25T18:18:53;53546.09;;;-145.06;100.00
59859;BME280;45734;53.648;9.566;2024-03-25T18:23:53;53531.94;;;-145.06;100.00
59859;BME280;45734;53.648;9.566;2024-03-25T18:28:54;53538.00;;;-145.06;100.00
59859;BME280;45734;53.648;9.566;2024-03-25T18:33:54;53546.09;;;-145.06;100.00
59859;BME280;45734;53.648;9.566;2024-03-25T18:38:54;53515.72;;;-145.06;100.00
59859;BME280;45734;53.648;9.566;2024-03-25T18:43:54;53505.59;;;-145.06;100.00
59859;BME280;45734;53.648;9.566;2024-03-25T18:48:55;53483.31;;;-145.06;100.00
59859;BME280;45734;53.648;9.566;2024-03-25T18:53:55;53519.78;;;-145.06;100.00
59859;BME280;45734;53.648;9.566;2024-03-25T18:58:55;53525.84;;;-145.06;100.00
59859;BME280;45734;53.648;9.566;2024-03-25T19:03:55;53554.19;;;-145.06;100.00
59859;BME280;45734;53.648;9.566;2024-03-25T19:08:56;53493.44;;;-145.06;100.00
59859;BME280;45734;53.648;9.566;2024-03-25T19:13:56;53542.06;;;-145.06;100.00
59859;BME280;45734;53.648;9.566;2024-03-25T19:18:56;53513.69;;;-145.06;100.00
59859;BME280;45734;53.648;9.566;2024-03-25T19:23:57;53515.72;;;-145.06;100.00
59859;BME280;45734;53.648;9.566;2024-03-25T19:28:57;53507.63;;;-145.06;100.00
59859;BME280;45734;53.648;9.566;2024-03-25T19:33:58;53544.06;;;-145.06;100.00
59859;BME280;45734;53.648;9.566;2024-03-25T19:38:58;53527.88;;;-145.06;100.00
59859;BME280;45734;53.648;9.566;2024-03-25T19:43:59;53572.44;;;-145.06;100.00
59859;BME280;45734;53.648;9.566;2024-03-25T19:49:00;53538.00;;;-145.06;100.00
59859;BME280;45734;53.648;9.566;2024-03-25T19:54:01;53515.72;;;-145.06;100.00
59859;BME280;45734;53.648;9.566;2024-03-25T19:59:01;53570.41;;;-145.06;100.00
59859;BME280;45734;53.648;9.566;2024-03-25T20:04:01;53568.38;;;-145.06;100.00
59859;BME280;45734;53.648;9.566;2024-03-25T20:09:02;53556.22;;;-145.06;100.00
59859;BME280;45734;53.648;9.566;2024-03-25T20:14:02;53544.06;;;-145.06;100.00
59859;BME280;45734;53.648;9.566;2024-03-25T20:19:02;53592.69;;;-145.06;100.00
59859;BME280;45734;53.648;9.566;2024-03-25T20:24:03;53582.56;;;-145.06;100.00
59859;BME280;45734;53.648;9.566;2024-03-25T20:29:03;53606.84;;;-145.06;100.00
59859;BME280;45734;53.648;9.566;2024-03-25T20:34:04;53614.94;;;-145.06;100.00
59859;BME280;45734;53.648;9.566;2024-03-25T20:39:05;53621.03;;;-145.06;100.00
59859;BME280;45734;53.648;9.566;2024-03-25T20:44:06;53633.19;;;-145.06;100.00
59859;BME280;45734;53.648;9.566;2024-03-25T20:49:06;53661.53;;;-145.06;100.00
59859;BME280;45734;53.648;9.566;2024-03-25T20:54:06;53643.31;;;-145.06;100.00
59859;BME280;45734;53.648;9.566;2024-03-25T20:59:07;53619.00;;;-145.06;100.00
59859;BME280;45734;53.648;9.566;2024-03-25T21:04:07;53572.44;;;-145.06;100.00
59859;BME280;45734;53.648;9.566;2024-03-25T21:09:07;53564.31;;;-145.06;100.00
59859;BME280;45734;53.648;9.566;2024-03-25T21:14:08;53521.81;;;-145.06;100.00
59859;BME280;45734;53.648;9.566;2024-03-25T21:19:09;53491.44;;;-145.06;100.00
59859;BME280;45734;53.648;9.566;2024-03-25T21:24:09;53457.00;;;-145.06;100.00
59859;BME280;45734;53.648;9.566;2024-03-25T21:29:09;53398.28;;;-145.06;100.00
59859;BME280;45734;53.648;9.566;2024-03-25T21:34:09;53434.72;;;-145.06;100.00
59859;BME280;45734;53.648;9.566;2024-03-25T21:39:10;53420.56;;;-145.06;100.00
59859;BME280;45734;53.648;9.566;2024-03-25T21:44:11;53392.19;;;-145.06;100.00
59859;BME280;45734;53.648;9.566;2024-03-25T21:49:12;53422.56;;;-145.06;100.00
59859;BME280;45734;53.648;9.566;2024-03-25T21:54:12;53426.63;;;-145.06;100.00
59859;BME280;45734;53.648;9.566;2024-03-25T21:59:12;53432.69;;;-145.06;100.00
59859;BME280;45734;53.648;9.566;2024-03-25T22:04:12;53420.56;;;-145.06;100.00
59859;BME280;45734;53.648;9.566;2024-03-25T22:09:13;53410.44;;;-145.06;100.00
59859;BME280;45734;53.648;9.566;2024-03-25T22:14:13;53428.66;;;-145.06;100.00
59859;BME280;45734;53.648;9.566;2024-03-25T22:19:13;53467.13;;;-145.06;100.00
59859;BME280;45734;53.648;9.566;2024-03-25T22:24:14;53434.72;;;-145.06;100.00
59859;BME280;45734;53.648;9.566;2024-03-25T22:29:14;53430.69;;;-145.06;100.00
59859;BME280;45734;53.648;9.566;2024-03-25T22:34:14;53471.19;;;-145.06;100.00
59859;BME280;45734;53.648;9.566;2024-03-25T22:39:15;53410.44;;;-145.06;100.00
59859;BME280;45734;53.648;9.566;2024-03-25T22:44:15;53422.56;;;-145.06;100.00
59859;BME280;45734;53.648;9.566;2024-03-25T22:49:15;53394.22;;;-145.06;100.00
59859;BME280;45734;53.648;9.566;2024-03-25T22:54:16;53442.81;;;-145.06;100.00
59859;BME280;45734;53.648;9.566;2024-03-25T22:59:16;53454.97;;;-145.06;100.00
59859;BME280;45734;53.648;9.566;2024-03-25T23:04:16;53426.63;;;-145.06;100.00
59859;BME280;45734;53.648;9.566;2024-03-25T23:09:16;53450.94;;;-145.06;100.00
59859;BME280;45734;53.648;9.566;2024-03-25T23:14:17;53416.50;;;-145.06;100.00
59859;BME280;45734;53.648;9.566;2024-03-25T23:19:17;53406.38;;;-145.06;100.00
59859;BME280;45734;53.648;9.566;2024-03-25T23:24:19;53341.59;;;-145.06;100.00
59859;BME280;45734;53.648;9.566;2024-03-25T23:29:19;53301.09;;;-145.06;100.00
59859;BME280;45734;53.648;9.566;2024-03-25T23:34:19;53351.72;;;-145.06;100.00
59859;BME280;45734;53.648;9.566;2024-03-25T23:39:20;53327.41;;;-145.06;100.00
59859;BME280;45734;53.648;9.566;2024-03-25T23:44:20;53319.31;;;-145.06;100.00
59859;BME280;45734;53.648;9.566;2024-03-25T23:49:20;53288.94;;;-145.06;100.00
59859;BME280;45734;53.648;9.566;2024-03-25T23:54:20;53309.19;;;-145.06;100.00
59859;BME280;45734;53.648;9.566;2024-03-25T23:59:21;53286.91;;;-145.06;100.00
